Time;durP1;ratioP1;P1;durP2;ratioP2;P2;SDS_P1;SDS_P2;PMS_P1;PMS_P2;Temp;Humidity;BMP_temperature;BMP_pressure;BME280_temperature;BME280_humidity;BME280_pressure;Samples;Min_cycle;Max_cycle;Signal;HPM_P1;HPM_P2
2023/05/21 04:01:09;;;;;;;9.47;6.23;;;13.70;97.30;;;;;;5781651;22;20488;-85
2023/05/21 04:03:35;;;;;;;14.30;7.23;;;13.70;97.30;;;;;;4993888;28;20428;-85
2023/05/21 04:06:02;;;;;;;7.50;5.87;;;13.70;97.30;;;;;;4993518;28;20192;-85
2023/05/21 04:08:27;;;;;;;16.47;8.13;;;13.70;97.30;;;;;;4993697;28;20499;-85
2023/05/21 04:10:53;;;;;;;15.50;8.27;;;13.70;97.30;;;;;;4998105;28;20479;-85
2023/05/21 04:13:19;;;;;;;21.00;9.60;;;13.60;97.30;;;;;;4987148;28;20185;-85
2023/05/21 04:15:45;;;;;;;10.97;8.30;;;13.70;97.30;;;;;;5004246;28;20177;-85
2023/05/21 04:18:15;;;;;;;16.77;8.67;;;13.70;97.30;;;;;;5014069;28;20407;-85
2023/05/21 04:20:41;;;;;;;13.80;7.87;;;13.70;97.30;;;;;;4992434;28;20968;-85
2023/05/21 04:23:07;;;;;;;14.93;8.70;;;13.70;97.30;;;;;;4993090;28;20478;-85
2023/05/21 04:25:32;;;;;;;9.87;6.03;;;13.70;97.30;;;;;;5005550;28;20409;-85
2023/05/21 04:27:58;;;;;;;12.93;9.00;;;13.70;97.30;;;;;;5006727;28;20208;-84
2023/05/21 04:30:24;;;;;;;21.47;11.43;;;13.70;97.30;;;;;;4991210;28;20184;-84
2023/05/21 04:32:51;;;;;;;20.10;10.27;;;13.70;97.30;;;;;;4977411;28;20177;-85
2023/05/21 04:35:17;;;;;;;21.37;9.67;;;13.70;97.30;;;;;;4977587;28;20272;-84
2023/05/21 04:37:44;;;;;;;13.80;9.50;;;13.70;97.30;;;;;;4966965;28;20529;-85
2023/05/21 04:40:23;;;;;;;14.27;9.73;;;13.70;97.30;;;;;;4972476;28;20292;-85
2023/05/21 04:42:49;;;;;;;12.50;6.57;;;13.80;97.30;;;;;;4972130;28;21022;-83
2023/05/21 04:45:16;;;;;;;18.63;9.53;;;13.80;97.30;;;;;;4974299;28;21982;-84
2023/05/21 04:47:42;;;;;;;16.00;8.20;;;13.80;97.30;;;;;;4992715;28;20412;-85
2023/05/21 04:50:09;;;;;;;15.83;7.30;;;13.80;97.30;;;;;;4971094;28;20720;-83
2023/05/21 04:52:35;;;;;;;20.30;10.30;;;13.80;97.30;;;;;;4970644;28;20255;-85
2023/05/21 04:55:01;;;;;;;8.87;7.87;;;13.90;97.30;;;;;;4975946;28;20891;-84
2023/05/21 04:57:28;;;;;;;18.87;10.37;;;13.90;97.30;;;;;;4974014;28;20433;-84
2023/05/21 04:59:55;;;;;;;14.37;8.97;;;13.90;97.30;;;;;;4974869;28;20521;-85
2023/05/21 05:02:20;;;;;;;19.50;9.93;;;13.90;97.30;;;;;;4981093;28;20479;-86
2023/05/21 05:04:46;;;;;;;9.77;6.80;;;14.00;97.30;;;;;;4985999;28;20421;-83
2023/05/21 05:07:12;;;;;;;20.73;11.47;;;14.00;97.30;;;;;;4974769;28;20644;-86
2023/05/21 05:09:37;;;;;;;18.60;7.77;;;14.00;97.30;;;;;;4973432;28;20181;-86
2023/05/21 05:12:03;;;;;;;16.93;9.10;;;14.10;97.30;;;;;;4972729;28;20445;-84
2023/05/21 05:14:29;;;;;;;18.27;10.07;;;14.10;97.30;;;;;;4976489;28;20183;-84
2023/05/21 05:16:58;;;;;;;14.53;8.37;;;14.10;97.30;;;;;;4979339;28;20434;-85
2023/05/21 05:19:24;;;;;;;10.30;7.90;;;14.20;97.30;;;;;;4976375;28;20208;-85
2023/05/21 05:21:49;;;;;;;9.47;8.80;;;14.20;97.30;;;;;;4976703;28;21058;-86
2023/05/21 05:24:15;;;;;;;13.20;9.23;;;14.20;97.30;;;;;;4990413;28;20201;-86
2023/05/21 05:26:40;;;;;;;16.23;8.60;;;14.20;97.30;;;;;;4970892;28;20212;-86
2023/05/21 05:29:06;;;;;;;12.37;8.77;;;14.30;97.30;;;;;;4992121;28;20178;-86
2023/05/21 05:31:31;;;;;;;12.80;7.97;;;14.30;97.30;;;;;;4974569;28;20189;-87
2023/05/21 05:33:57;;;;;;;19.30;7.97;;;14.40;97.30;;;;;;4973820;28;20332;-87
2023/05/21 05:36:23;;;;;;;22.57;11.00;;;14.40;97.30;;;;;;4978301;28;20647;-87
2023/05/21 05:38:48;;;;;;;18.07;10.10;;;14.40;97.30;;;;;;4987815;28;20178;-87
2023/05/21 05:41:14;;;;;;;11.50;7.80;;;14.50;97.30;;;;;;4972451;28;20457;-87
2023/05/21 05:43:39;;;;;;;8.13;7.73;;;14.60;97.30;;;;;;4971219;28;20562;-86
2023/05/21 05:46:05;;;;;;;15.83;8.70;;;14.60;97.30;;;;;;4973334;28;20678;-86
2023/05/21 05:48:30;;;;;;;19.43;11.27;;;14.70;97.30;;;;;;4973379;28;20216;-87
2023/05/21 05:50:56;;;;;;;13.13;9.53;;;14.80;97.30;;;;;;4973375;28;20236;-86
2023/05/21 05:53:21;;;;;;;10.63;8.40;;;14.90;97.30;;;;;;4974488;28;20213;-85
2023/05/21 05:55:47;;;;;;;14.33;7.73;;;15.00;97.30;;;;;;4972691;28;20175;-86
2023/05/21 05:58:12;;;;;;;18.53;9.87;;;15.10;97.30;;;;;;4980049;28;20170;-87
2023/05/21 06:00:38;;;;;;;16.70;9.60;;;15.20;97.30;;;;;;4979861;28;20177;-84
2023/05/21 06:03:04;;;;;;;19.97;8.23;;;15.30;97.30;;;;;;4988266;28;20204;-86
2023/05/21 06:05:29;;;;;;;14.13;8.70;;;15.40;97.30;;;;;;5015856;28;20173;-87
2023/05/21 06:07:55;;;;;;;13.20;9.40;;;15.50;97.30;;;;;;4998131;28;20177;-86
2023/05/21 06:10:21;;;;;;;23.10;11.20;;;15.60;97.30;;;;;;4997337;28;20211;-85
2023/05/21 06:12:46;;;;;;;18.83;9.23;;;15.70;97.30;;;;;;4998140;28;20219;-87
2023/05/21 06:15:13;;;;;;;16.77;8.90;;;15.80;97.30;;;;;;4996897;28;20196;-87
2023/05/21 06:17:39;;;;;;;9.23;6.53;;;15.90;97.30;;;;;;4992250;28;20322;-86
2023/05/21 06:20:07;;;;;;;13.97;9.57;;;16.00;97.30;;;;;;4997381;28;20991;-86
2023/05/21 06:22:33;;;;;;;14.07;9.10;;;16.10;97.30;;;;;;4998749;28;20695;-87
2023/05/21 06:24:59;;;;;;;19.77;10.40;;;16.20;97.30;;;;;;4997157;28;20510;-85
2023/05/21 06:27:24;;;;;;;21.67;8.67;;;16.20;97.30;;;;;;5020724;28;20169;-87
2023/05/21 06:29:50;;;;;;;16.70;6.63;;;16.30;97.30;;;;;;5036026;28;20189;-87
2023/05/21 06:32:15;;;;;;;10.03;6.00;;;16.40;97.30;;;;;;5011732;28;20211;-87
2023/05/21 06:34:41;;;;;;;11.97;6.77;;;16.50;97.30;;;;;;4997767;28;20194;-87
2023/05/21 06:37:06;;;;;;;12.53;9.07;;;16.50;97.30;;;;;;4986205;28;20251;-87
2023/05/21 06:39:32;;;;;;;12.77;6.37;;;16.60;97.30;;;;;;5012473;28;20245;-87
2023/05/21 06:41:57;;;;;;;13.20;7.90;;;16.70;97.30;;;;;;4993490;28;20208;-87
2023/05/21 06:44:23;;;;;;;12.10;8.37;;;16.70;97.30;;;;;;4993919;28;20671;-87
2023/05/21 06:46:48;;;;;;;17.00;8.53;;;16.80;97.30;;;;;;4993829;28;20189;-86
2023/05/21 06:49:15;;;;;;;16.17;9.77;;;16.90;97.30;;;;;;4994398;28;20218;-87
2023/05/21 06:51:40;;;;;;;17.03;9.80;;;16.90;97.30;;;;;;4988788;28;20200;-87
2023/05/21 06:54:06;;;;;;;14.93;8.30;;;17.00;97.30;;;;;;5010438;28;20438;-86
2023/05/21 06:56:31;;;;;;;14.90;8.97;;;17.10;97.30;;;;;;4992305;28;20189;-86
2023/05/21 06:58:58;;;;;;;12.70;8.33;;;17.20;97.30;;;;;;4993193;28;20185;-87
2023/05/21 07:01:23;;;;;;;20.20;9.00;;;17.20;97.30;;;;;;4992581;28;20239;-87
2023/05/21 07:03:49;;;;;;;11.23;8.03;;;17.30;97.30;;;;;;4992684;28;20413;-87
2023/05/21 07:06:15;;;;;;;8.90;7.67;;;17.30;97.30;;;;;;4995059;28;20655;-87
2023/05/21 07:08:41;;;;;;;16.23;7.83;;;17.40;97.30;;;;;;4994159;28;20170;-87
2023/05/21 07:11:06;;;;;;;13.40;7.77;;;17.50;97.30;;;;;;4991910;28;20437;-86
2023/05/21 07:13:34;;;;;;;13.70;7.87;;;17.60;97.30;;;;;;5000027;28;20175;-86
2023/05/21 07:15:59;;;;;;;24.83;9.57;;;17.70;97.30;;;;;;4973967;28;20173;-86
2023/05/21 07:18:25;;;;;;;11.63;6.80;;;17.80;97.30;;;;;;4971472;28;20432;-84
2023/05/21 07:20:50;;;;;;;8.87;5.70;;;17.90;97.30;;;;;;4966495;28;20567;-85
2023/05/21 07:23:16;;;;;;;12.73;7.60;;;18.00;97.30;;;;;;4966837;28;20206;-86
2023/05/21 07:25:41;;;;;;;14.57;7.10;;;18.20;97.30;;;;;;4963984;28;20269;-87
2023/05/21 07:28:07;;;;;;;9.43;6.93;;;18.30;97.30;;;;;;4988033;28;20658;-87
2023/05/21 07:30:32;;;;;;;11.20;7.93;;;18.50;97.30;;;;;;4984145;28;20256;-87
2023/05/21 07:32:58;;;;;;;27.00;9.70;;;18.60;97.30;;;;;;4974387;28;20174;-87
2023/05/21 07:35:23;;;;;;;22.90;8.07;;;18.80;97.30;;;;;;4973444;28;20178;-86
2023/05/21 07:37:49;;;;;;;16.40;5.70;;;18.90;97.30;;;;;;4977965;28;20216;-87
2023/05/21 07:40:14;;;;;;;13.53;7.17;;;19.10;97.30;;;;;;4994439;28;20189;-88
2023/05/21 07:42:40;;;;;;;19.43;8.60;;;19.20;97.30;;;;;;4977137;28;20822;-87
2023/05/21 07:45:06;;;;;;;8.87;6.70;;;19.40;97.30;;;;;;4983262;28;20558;-87
2023/05/21 07:47:31;;;;;;;13.30;8.40;;;19.50;97.30;;;;;;4978562;28;20230;-87
2023/05/21 07:50:00;;;;;;;14.73;8.00;;;19.70;97.30;;;;;;4977765;28;20417;-85
2023/05/21 07:52:26;;;;;;;14.47;8.83;;;19.80;97.30;;;;;;4983535;28;20426;-88
2023/05/21 07:54:51;;;;;;;10.87;6.37;;;20.00;97.30;;;;;;4980091;28;20437;-87
2023/05/21 07:57:17;;;;;;;11.60;7.77;;;20.10;97.30;;;;;;4998141;28;20190;-87
2023/05/21 07:59:42;;;;;;;10.57;5.93;;;20.20;97.30;;;;;;4975853;28;20185;-87
2023/05/21 08:02:08;;;;;;;20.53;8.77;;;20.40;97.30;;;;;;4981741;28;20272;-87
2023/05/21 08:04:33;;;;;;;12.30;7.50;;;20.50;97.30;;;;;;4985400;28;20192;-85
2023/05/21 08:06:59;;;;;;;11.73;6.37;;;20.70;97.30;;;;;;5010562;28;20182;-85
2023/05/21 08:09:24;;;;;;;11.10;5.30;;;20.70;97.30;;;;;;4988346;28;20215;-84
2023/05/21 08:11:50;;;;;;;12.10;7.67;;;20.80;97.30;;;;;;4986054;28;20208;-85
2023/05/21 08:14:16;;;;;;;11.73;6.90;;;20.90;97.30;;;;;;4991773;28;20511;-85
2023/05/21 08:16:41;;;;;;;8.63;6.70;;;20.90;97.30;;;;;;4982100;28;20185;-83
2023/05/21 08:19:09;;;;;;;11.50;8.13;;;21.10;97.30;;;;;;4971391;28;20197;-83
2023/05/21 08:21:35;;;;;;;8.47;5.57;;;21.20;97.30;;;;;;4976586;28;20236;-82
2023/05/21 08:24:01;;;;;;;11.37;6.00;;;21.40;97.30;;;;;;4983648;28;20429;-83
2023/05/21 08:26:27;;;;;;;26.10;9.87;;;21.50;97.30;;;;;;4981098;28;20425;-83
2023/05/21 08:28:52;;;;;;;13.70;6.50;;;21.50;97.30;;;;;;4985569;28;20479;-84
2023/05/21 08:31:18;;;;;;;6.73;5.47;;;21.50;97.30;;;;;;4989234;28;20213;-84
2023/05/21 08:33:51;;;;;;;13.07;6.93;;;21.50;97.30;;;;;;4987749;28;20196;-83
2023/05/21 08:36:17;;;;;;;15.93;8.20;;;21.60;97.30;;;;;;4994750;28;20242;-84
2023/05/21 08:38:43;;;;;;;8.73;6.07;;;21.70;97.30;;;;;;5013262;28;20543;-84
2023/05/21 08:41:10;;;;;;;8.90;6.40;;;21.80;97.30;;;;;;4980644;28;20448;-83
2023/05/21 08:43:37;;;;;;;9.30;6.47;;;21.90;97.30;;;;;;4984686;28;20663;-82
2023/05/21 08:46:03;;;;;;;13.40;7.10;;;22.10;97.30;;;;;;4981396;28;20455;-81
2023/05/21 08:48:30;;;;;;;17.17;7.50;;;22.20;97.30;;;;;;4985556;28;20455;-84
2023/05/21 08:50:57;;;;;;;16.97;6.53;;;22.30;96.50;;;;;;4982220;28;20548;-83
2023/05/21 08:53:26;;;;;;;10.03;6.30;;;22.40;96.70;;;;;;5005196;28;20413;-84
2023/05/21 08:55:54;;;;;;;12.00;5.97;;;22.50;96.70;;;;;;4984984;28;20421;-81
2023/05/21 08:58:20;;;;;;;9.33;5.10;;;22.60;96.20;;;;;;4975011;28;20942;-81
2023/05/21 09:00:45;;;;;;;10.10;4.70;;;22.70;96.90;;;;;;4968005;28;20528;-82
2023/05/21 09:03:12;;;;;;;16.40;7.20;;;22.90;96.20;;;;;;4972965;28;20210;-82
2023/05/21 09:05:40;;;;;;;6.50;5.33;;;23.00;95.90;;;;;;4978266;28;20200;-82
2023/05/21 09:08:08;;;;;;;12.57;8.20;;;23.10;96.00;;;;;;4978909;28;20962;-81
2023/05/21 09:10:37;;;;;;;10.90;7.00;;;23.30;95.50;;;;;;4990463;28;20424;-83
2023/05/21 09:13:03;;;;;;;12.33;6.97;;;23.40;94.60;;;;;;4986949;28;20429;-81
2023/05/21 09:15:28;;;;;;;9.03;5.87;;;23.40;93.90;;;;;;4999382;28;20438;-84
2023/05/21 09:17:54;;;;;;;7.10;4.73;;;23.50;94.50;;;;;;4993764;28;20934;-84
2023/05/21 09:20:25;;;;;;;16.87;7.10;;;23.70;93.80;;;;;;4991894;28;20567;-84
2023/05/21 09:22:51;;;;;;;7.43;5.33;;;23.70;94.20;;;;;;4996120;28;20212;-84
2023/05/21 09:25:22;;;;;;;13.07;6.03;;;23.80;93.70;;;;;;4994003;28;20779;-85
2023/05/21 09:27:47;;;;;;;7.03;5.90;;;23.90;93.90;;;;;;4987593;28;21002;-84
2023/05/21 09:30:16;;;;;;;9.33;5.97;;;24.00;93.90;;;;;;4989459;28;20516;-87
2023/05/21 09:32:43;;;;;;;13.43;7.47;;;24.10;92.90;;;;;;4989177;28;20202;-87
2023/05/21 09:35:10;;;;;;;8.80;5.10;;;24.20;93.50;;;;;;4999515;28;20487;-85
2023/05/21 09:37:42;;;;;;;7.43;6.40;;;24.20;93.20;;;;;;4951293;28;20485;-87
2023/05/21 09:40:19;;;;;;;8.90;6.57;;;24.30;93.30;;;;;;4969218;28;20421;-87
2023/05/21 09:42:48;;;;;;;10.57;6.77;;;24.30;92.10;;;;;;4976312;28;20503;-87
2023/05/21 09:45:21;;;;;;;7.77;6.17;;;24.30;92.50;;;;;;4987787;28;20447;-87
2023/05/21 09:47:48;;;;;;;24.50;6.70;;;24.40;92.10;;;;;;4983260;28;20431;-87
2023/05/21 09:50:22;;;;;;;8.30;6.30;;;24.40;91.10;;;;;;4977242;28;20436;-87
2023/05/21 09:52:49;;;;;;;6.83;5.13;;;24.30;91.60;;;;;;4977647;28;20507;-87
2023/05/21 09:55:16;;;;;;;11.03;6.23;;;24.40;91.80;;;;;;4985622;28;20474;-87
2023/05/21 09:57:48;;;;;;;9.57;6.60;;;24.40;91.80;;;;;;4986248;28;21007;-87
2023/05/21 10:00:32;;;;;;;10.83;6.13;;;24.50;92.20;;;;;;4986840;28;21026;-87
2023/05/21 10:03:08;;;;;;;5.37;5.10;;;24.60;92.70;;;;;;4987038;28;20483;-86
2023/05/21 10:05:34;;;;;;;12.27;5.50;;;24.80;90.90;;;;;;4988774;28;20416;-87
2023/05/21 10:08:02;;;;;;;12.60;6.93;;;24.90;91.00;;;;;;4988870;28;20420;-87
2023/05/21 10:10:28;;;;;;;10.67;7.30;;;25.10;90.50;;;;;;4999624;28;20570;-87
2023/05/21 10:13:02;;;;;;;12.17;7.37;;;25.20;89.60;;;;;;4996860;28;20420;-87
2023/05/21 10:17:56;;;;;;;11.00;5.57;;;25.30;88.80;;;;;;5042336;23;20487;-86
2023/05/21 10:20:22;;;;;;;8.43;5.90;;;25.50;89.80;;;;;;5000012;28;20423;-83
2023/05/21 10:22:49;;;;;;;8.70;5.90;;;25.60;89.20;;;;;;5003098;28;20553;-83
2023/05/21 10:25:15;;;;;;;7.20;5.37;;;25.80;88.80;;;;;;5002587;28;20185;-86
2023/05/21 10:27:40;;;;;;;8.03;5.77;;;25.90;88.10;;;;;;5021429;28;21744;-85
2023/05/21 10:30:07;;;;;;;6.30;4.80;;;25.90;87.20;;;;;;5002496;28;20420;-85
2023/05/21 10:32:33;;;;;;;11.13;5.60;;;26.00;88.20;;;;;;5002275;28;21393;-84
2023/05/21 10:35:01;;;;;;;8.03;6.43;;;26.00;86.60;;;;;;5003782;28;20436;-86
2023/05/21 10:37:27;;;;;;;10.40;7.20;;;25.90;87.10;;;;;;4997814;28;20268;-84
2023/05/21 10:39:54;;;;;;;8.20;5.20;;;26.00;87.90;;;;;;4992910;28;20432;-82
2023/05/21 10:42:22;;;;;;;10.37;5.73;;;26.20;87.50;;;;;;4980373;28;20439;-85
2023/05/21 10:45:15;;;;;;;10.30;5.67;;;26.30;87.80;;;;;;4990789;28;21618;-85
2023/05/21 10:48:15;;;;;;;10.20;6.03;;;26.40;87.50;;;;;;4995253;28;20537;-83
2023/05/21 10:51:19;;;;;;;9.77;5.90;;;26.50;86.60;;;;;;4987791;28;21124;-84
2023/05/21 10:54:03;;;;;;;10.60;5.63;;;26.60;85.70;;;;;;4987001;28;20427;-84
2023/05/21 10:57:08;;;;;;;6.87;5.80;;;26.60;85.40;;;;;;4990462;28;20443;-82
2023/05/21 10:59:44;;;;;;;8.37;4.80;;;26.60;85.90;;;;;;4991890;28;20808;-84
2023/05/21 11:02:13;;;;;;;14.30;6.60;;;26.60;84.30;;;;;;4988082;28;20760;-85
2023/05/21 11:04:42;;;;;;;12.60;4.50;;;26.70;83.50;;;;;;4976335;28;20440;-85
2023/05/21 11:07:07;;;;;;;7.20;4.73;;;26.80;83.90;;;;;;5006327;28;20438;-85
2023/05/21 11:09:33;;;;;;;4.40;3.70;;;26.80;82.20;;;;;;4986786;28;20425;-85
2023/05/21 11:12:00;;;;;;;7.87;4.60;;;26.90;83.70;;;;;;5004023;28;20189;-85
2023/05/21 11:14:37;;;;;;;8.60;5.10;;;27.00;82.90;;;;;;4991998;28;20273;-83
2023/05/21 11:17:06;;;;;;;7.30;4.33;;;27.10;81.90;;;;;;4985612;28;20456;-85
2023/05/21 11:19:39;;;;;;;4.10;3.57;;;27.20;80.30;;;;;;4989078;28;20472;-85
2023/05/21 11:22:19;;;;;;;10.00;4.37;;;27.30;82.00;;;;;;4985594;28;20469;-84
2023/05/21 11:24:44;;;;;;;11.87;6.33;;;27.40;80.90;;;;;;5004083;28;20427;-84
2023/05/21 11:27:11;;;;;;;7.43;4.33;;;27.40;80.30;;;;;;4987063;28;20444;-83
2023/05/21 11:29:39;;;;;;;8.47;5.73;;;27.40;79.50;;;;;;4984408;28;20178;-86
2023/05/21 11:32:08;;;;;;;11.13;4.70;;;27.30;80.70;;;;;;4984380;28;20425;-84
2023/05/21 11:34:42;;;;;;;5.53;3.77;;;27.30;79.30;;;;;;4986424;28;20603;-82
2023/05/21 11:37:22;;;;;;;7.93;5.00;;;27.30;80.80;;;;;;5007170;28;20454;-82
2023/05/21 11:39:48;;;;;;;4.93;4.07;;;27.30;79.70;;;;;;4989659;28;20416;-82
2023/05/21 11:42:37;;;;;;;7.07;5.63;;;27.40;80.30;;;;;;4988488;28;20463;-84
2023/05/21 11:45:03;;;;;;;8.23;4.83;;;27.50;80.40;;;;;;5005987;28;20503;-83
2023/05/21 11:47:29;;;;;;;8.97;4.53;;;27.50;80.40;;;;;;4991123;28;20598;-83
2023/05/21 11:49:57;;;;;;;4.20;3.70;;;27.60;81.30;;;;;;4987175;28;20968;-82
2023/05/21 11:52:22;;;;;;;9.50;4.73;;;27.50;80.10;;;;;;4986089;28;20867;-83
2023/05/21 11:54:52;;;;;;;6.37;4.70;;;27.40;80.00;;;;;;5005728;28;20448;-82
2023/05/21 11:57:18;;;;;;;18.13;4.40;;;27.30;78.80;;;;;;5005456;28;20208;-83
2023/05/21 11:59:45;;;;;;;8.77;5.40;;;27.10;80.40;;;;;;4982124;28;20491;-83
2023/05/21 12:02:15;;;;;;;6.47;3.50;;;27.00;80.30;;;;;;4986235;28;20197;-82
2023/05/21 12:04:41;;;;;;;10.43;3.87;;;26.90;81.20;;;;;;4976232;28;20413;-85
2023/05/21 12:07:08;;;;;;;4.70;4.40;;;27.00;80.60;;;;;;4987141;28;20466;-83
2023/05/21 12:09:43;;;;;;;3.83;3.53;;;27.00;80.20;;;;;;4986407;28;20189;-84
2023/05/21 12:12:10;;;;;;;14.90;3.73;;;27.00;80.40;;;;;;4984135;28;20430;-83
2023/05/21 12:14:36;;;;;;;4.50;3.50;;;27.10;80.00;;;;;;4987272;28;20424;-83
2023/05/21 12:17:06;;;;;;;8.17;4.83;;;27.00;81.00;;;;;;4986157;28;20471;-84
2023/05/21 12:19:36;;;;;;;9.47;4.47;;;27.10;80.60;;;;;;4987305;28;20431;-84
2023/05/21 12:22:03;;;;;;;8.30;4.63;;;27.10;79.80;;;;;;4979569;28;20647;-83
2023/05/21 12:24:29;;;;;;;5.00;4.57;;;27.00;79.80;;;;;;5002931;28;20990;-84
2023/05/21 12:27:00;;;;;;;4.77;4.10;;;26.90;79.90;;;;;;4982974;28;20448;-84
2023/05/21 12:29:31;;;;;;;9.57;4.53;;;26.80;79.80;;;;;;4986995;28;20412;-83
2023/05/21 12:32:01;;;;;;;8.00;4.40;;;26.80;79.00;;;;;;4983722;28;20424;-83
2023/05/21 12:34:43;;;;;;;7.60;5.73;;;26.60;79.80;;;;;;4978772;28;20551;-83
2023/05/21 12:37:11;;;;;;;7.63;5.10;;;26.50;80.40;;;;;;4987178;28;20447;-83
2023/05/21 12:39:45;;;;;;;7.90;5.43;;;26.40;80.80;;;;;;4984802;28;20523;-84
2023/05/21 12:42:11;;;;;;;5.93;4.63;;;26.50;81.80;;;;;;4973042;28;20503;-82
2023/05/21 12:44:45;;;;;;;4.33;3.50;;;26.70;81.60;;;;;;4986719;28;20420;-85
2023/05/21 12:47:11;;;;;;;9.33;4.77;;;26.80;81.80;;;;;;4987359;28;20490;-83
2023/05/21 12:49:43;;;;;;;8.00;5.57;;;26.90;81.50;;;;;;4987836;28;20474;-83
2023/05/21 12:52:11;;;;;;;5.10;3.73;;;26.90;79.80;;;;;;4990269;28;20427;-84
2023/05/21 12:54:39;;;;;;;5.23;4.70;;;26.90;80.50;;;;;;5005569;28;20860;-85
2023/05/21 12:57:14;;;;;;;8.87;4.43;;;27.00;80.10;;;;;;4985485;28;20527;-83
2023/05/21 12:59:48;;;;;;;7.70;5.23;;;27.10;80.10;;;;;;4985987;28;20483;-84
2023/05/21 13:02:28;;;;;;;5.27;4.60;;;27.20;80.00;;;;;;4986424;28;20456;-86
2023/05/21 13:04:56;;;;;;;6.90;4.03;;;27.30;80.60;;;;;;4986393;28;20425;-82
2023/05/21 13:07:22;;;;;;;6.80;4.70;;;27.30;80.90;;;;;;4988639;28;20498;-80
2023/05/21 13:09:48;;;;;;;5.63;4.27;;;27.40;80.20;;;;;;4986719;28;20520;-80
2023/05/21 13:12:16;;;;;;;6.03;5.03;;;27.50;78.70;;;;;;4985469;28;20937;-83
2023/05/21 13:14:41;;;;;;;9.57;5.17;;;27.60;79.50;;;;;;4988952;28;21102;-80
2023/05/21 13:17:07;;;;;;;7.70;3.97;;;27.70;79.20;;;;;;5006052;28;20471;-80
2023/05/21 13:19:32;;;;;;;8.07;4.40;;;27.80;77.50;;;;;;4989327;28;20536;-81
2023/05/21 13:21:58;;;;;;;17.87;5.23;;;27.90;78.00;;;;;;4990816;28;20211;-81
2023/05/21 13:24:23;;;;;;;10.20;4.30;;;28.00;78.50;;;;;;4992649;28;20185;-81
2023/05/21 13:26:49;;;;;;;8.10;4.60;;;28.10;79.30;;;;;;4992003;28;20212;-81
2023/05/21 13:29:15;;;;;;;9.10;3.80;;;28.20;79.50;;;;;;4990812;28;20204;-82
2023/05/21 13:31:42;;;;;;;6.30;4.50;;;28.30;79.80;;;;;;4990407;28;20194;-81
2023/05/21 13:34:08;;;;;;;6.53;4.13;;;28.40;79.30;;;;;;4991136;28;20188;-80
2023/05/21 13:36:34;;;;;;;9.10;5.60;;;28.60;78.10;;;;;;4980329;28;20440;-82
2023/05/21 13:39:00;;;;;;;6.63;4.53;;;28.70;78.30;;;;;;4992567;28;20431;-81
2023/05/21 13:41:25;;;;;;;6.30;4.00;;;28.80;78.00;;;;;;4990363;28;20184;-82
2023/05/21 13:43:51;;;;;;;9.23;5.07;;;28.90;77.50;;;;;;4990953;28;20177;-84
2023/05/21 13:46:16;;;;;;;13.00;6.10;;;28.80;77.80;;;;;;4988545;28;20270;-81
2023/05/21 13:48:42;;;;;;;7.43;4.93;;;28.90;77.80;;;;;;4989563;28;21356;-84
2023/05/21 13:51:08;;;;;;;8.47;4.10;;;28.80;77.60;;;;;;4992093;28;20292;-84
2023/05/21 13:53:33;;;;;;;6.97;4.37;;;28.80;77.60;;;;;;4986322;28;20221;-83
2023/05/21 13:55:59;;;;;;;6.43;4.20;;;28.70;78.40;;;;;;4976951;28;20288;-83
2023/05/21 13:58:26;;;;;;;6.00;4.30;;;28.60;78.30;;;;;;4985205;28;20192;-83
2023/05/21 14:00:52;;;;;;;7.10;3.50;;;28.50;79.30;;;;;;4976672;28;20280;-84
2023/05/21 14:03:17;;;;;;;7.83;4.43;;;28.60;79.10;;;;;;4994412;28;20456;-83
2023/05/21 14:05:43;;;;;;;3.87;3.30;;;28.60;77.50;;;;;;4980358;28;20177;-84
2023/05/21 14:08:09;;;;;;;5.47;4.80;;;28.50;74.60;;;;;;4981629;28;20192;-85
2023/05/21 14:10:34;;;;;;;4.43;3.00;;;28.40;74.50;;;;;;4976068;28;20186;-85
2023/05/21 14:13:00;;;;;;;4.50;2.70;;;28.40;73.40;;;;;;4976607;28;20186;-82
2023/05/21 14:15:26;;;;;;;4.10;2.80;;;28.40;73.40;;;;;;4977182;28;20643;-84
2023/05/21 14:17:52;;;;;;;2.53;2.33;;;28.30;74.20;;;;;;4976514;28;20475;-85
2023/05/21 14:20:18;;;;;;;5.67;3.70;;;28.40;74.70;;;;;;4976060;28;20174;-84
2023/05/21 14:22:43;;;;;;;3.60;2.40;;;28.60;74.00;;;;;;4976658;28;20514;-85
2023/05/21 14:25:09;;;;;;;4.40;3.03;;;28.70;73.40;;;;;;4982430;28;20188;-84
2023/05/21 14:27:36;;;;;;;5.90;4.90;;;28.70;73.90;;;;;;5005508;28;20224;-84
2023/05/21 14:30:02;;;;;;;6.60;4.33;;;28.80;74.30;;;;;;4993496;28;20772;-82
2023/05/21 14:32:27;;;;;;;8.40;3.30;;;28.90;73.90;;;;;;4976084;28;20424;-84
2023/05/21 14:34:53;;;;;;;5.37;4.57;;;28.90;73.10;;;;;;4972736;28;20503;-84
2023/05/21 14:37:18;;;;;;;5.27;3.33;;;29.00;73.70;;;;;;4972381;28;20202;-84
2023/05/21 14:39:44;;;;;;;7.43;4.40;;;29.00;73.60;;;;;;4976611;28;20213;-84
2023/05/21 14:42:10;;;;;;;4.93;4.10;;;28.90;72.80;;;;;;4975745;28;20248;-84
2023/05/21 14:44:35;;;;;;;3.70;3.10;;;28.80;74.00;;;;;;4984405;28;20229;-84
2023/05/21 14:47:01;;;;;;;6.37;4.20;;;28.70;73.00;;;;;;4976163;28;20198;-84
2023/05/21 14:49:26;;;;;;;8.80;3.33;;;28.60;74.50;;;;;;4976080;28;20181;-84
2023/05/21 14:51:52;;;;;;;5.23;4.27;;;28.50;75.00;;;;;;4975671;28;20192;-84
2023/05/21 14:54:17;;;;;;;7.33;4.40;;;28.40;75.30;;;;;;4976318;28;20205;-83
2023/05/21 14:56:43;;;;;;;8.70;5.23;;;28.40;76.20;;;;;;4975905;28;20679;-85
2023/05/21 14:59:11;;;;;;;4.53;4.00;;;28.40;76.40;;;;;;4975746;28;20193;-84
2023/05/21 15:01:37;;;;;;;4.83;3.70;;;28.40;76.70;;;;;;4974668;28;20527;-84
2023/05/21 15:04:03;;;;;;;15.23;5.80;;;28.30;75.80;;;;;;4975754;28;20472;-84
2023/05/21 15:06:28;;;;;;;6.03;4.17;;;28.30;75.90;;;;;;4975645;28;20468;-83
2023/05/21 15:08:54;;;;;;;5.73;3.03;;;28.30;76.20;;;;;;4976016;28;20174;-84
2023/05/21 15:11:20;;;;;;;5.90;3.00;;;28.40;74.50;;;;;;4983922;28;20181;-84
2023/05/21 15:13:45;;;;;;;3.40;3.20;;;28.40;75.10;;;;;;4983583;28;20218;-84
2023/05/21 15:16:11;;;;;;;5.00;3.33;;;28.40;75.40;;;;;;4975126;28;20225;-84
2023/05/21 15:18:36;;;;;;;18.10;3.33;;;28.50;75.70;;;;;;4977192;28;20232;-84
2023/05/21 15:21:02;;;;;;;5.23;4.13;;;28.60;75.30;;;;;;4985960;28;20190;-84
2023/05/21 15:23:27;;;;;;;3.50;3.30;;;28.50;75.50;;;;;;4992978;28;20217;-84
2023/05/21 15:25:53;;;;;;;6.80;4.07;;;28.50;76.20;;;;;;4992956;28;20261;-84
2023/05/21 15:28:19;;;;;;;3.67;2.73;;;28.50;76.10;;;;;;4974933;28;20181;-84
2023/05/21 15:30:44;;;;;;;7.07;4.27;;;28.50;76.00;;;;;;4982528;28;20180;-84
2023/05/21 15:33:10;;;;;;;6.23;4.37;;;28.40;76.10;;;;;;4980817;28;20552;-84
2023/05/21 15:35:35;;;;;;;6.43;4.47;;;28.40;76.70;;;;;;4970053;28;20221;-84
2023/05/21 15:38:01;;;;;;;3.73;3.13;;;28.40;75.90;;;;;;4974655;28;20209;-84
2023/05/21 15:40:27;;;;;;;4.63;3.40;;;28.30;76.70;;;;;;4974381;28;20187;-82
2023/05/21 15:42:52;;;;;;;4.70;3.00;;;28.20;76.60;;;;;;4974137;28;20244;-84
2023/05/21 15:45:18;;;;;;;14.47;4.60;;;28.30;77.80;;;;;;4964722;28;20178;-83
2023/05/21 15:47:43;;;;;;;5.10;3.60;;;28.30;77.00;;;;;;4967231;28;20289;-83
2023/05/21 15:50:09;;;;;;;3.40;3.20;;;28.30;77.40;;;;;;4967052;28;20174;-84
2023/05/21 15:52:35;;;;;;;15.13;4.30;;;28.30;77.20;;;;;;4983888;28;20225;-87
2023/05/21 15:55:01;;;;;;;4.93;3.67;;;28.20;77.20;;;;;;4969936;28;20453;-84
2023/05/21 15:57:26;;;;;;;5.73;3.03;;;28.20;77.50;;;;;;4989189;28;20473;-83
2023/05/21 15:59:52;;;;;;;9.20;4.73;;;28.10;76.60;;;;;;4973657;28;20209;-84
2023/05/21 16:02:17;;;;;;;3.83;3.20;;;27.90;76.80;;;;;;4975300;28;20205;-83
2023/05/21 16:04:43;;;;;;;5.47;3.80;;;27.70;77.00;;;;;;4972066;28;20528;-83
2023/05/21 16:07:08;;;;;;;6.83;4.03;;;27.60;76.40;;;;;;4973676;28;20198;-81
2023/05/21 16:09:36;;;;;;;6.97;4.20;;;27.40;76.50;;;;;;4974476;28;20212;-84
2023/05/21 16:12:01;;;;;;;11.00;4.50;;;27.30;76.40;;;;;;4974230;28;20218;-83
2023/05/21 16:14:28;;;;;;;5.50;3.93;;;27.10;76.60;;;;;;4969689;28;20460;-83
2023/05/21 16:16:54;;;;;;;5.40;3.63;;;27.00;76.90;;;;;;5018313;23;20228;-63
2023/05/21 16:19:19;;;;;;;5.00;4.70;;;27.00;76.90;;;;;;5019303;28;20490;-64
2023/05/21 16:21:45;;;;;;;6.30;3.93;;;26.90;77.70;;;;;;5013780;28;20467;-64
2023/05/21 16:24:11;;;;;;;7.43;5.60;;;26.90;78.10;;;;;;5010808;28;20633;-64
2023/05/21 16:26:36;;;;;;;5.27;4.07;;;26.90;78.10;;;;;;5008724;28;20177;-65
2023/05/21 16:29:02;;;;;;;11.47;5.40;;;26.90;77.80;;;;;;5015773;28;20180;-64
2023/05/21 16:31:27;;;;;;;5.17;3.50;;;26.80;78.80;;;;;;5008354;28;20212;-65
2023/05/21 16:33:53;;;;;;;7.37;4.27;;;26.70;78.40;;;;;;5008806;28;20711;-64
2023/05/21 16:36:18;;;;;;;7.00;4.27;;;26.60;79.20;;;;;;5023972;28;20199;-65
2023/05/21 16:38:44;;;;;;;12.40;6.10;;;26.50;79.10;;;;;;5017050;28;20193;-64
2023/05/21 16:41:09;;;;;;;7.70;5.20;;;26.40;79.40;;;;;;5010160;28;20211;-65
2023/05/21 16:43:36;;;;;;;8.60;5.27;;;26.30;79.90;;;;;;5009435;28;20229;-65